Time;durP1;ratioP1;P1;durP2;ratioP2;P2;SDS_P1;SDS_P2;PMS_P1;PMS_P2;Temp;Humidity;BMP_temperature;BMP_pressure;BME280_temperature;BME280_humidity;BME280_pressure;Samples;Min_cycle;Max_cycle;Signal;HPM_P1;HPM_P2
2022/10/08 00:01:05;;;;;;;1999.90;999.90;;;9.70;99.90;;;;;;5009652;28;20458;-72
2022/10/08 00:03:33;;;;;;;1999.90;999.90;;;9.70;99.90;;;;;;4997219;28;20484;-72
2022/10/08 00:06:02;;;;;;;1999.90;999.90;;;9.70;99.90;;;;;;5008085;28;20464;-73
2022/10/08 00:08:31;;;;;;;1999.90;999.90;;;9.80;99.90;;;;;;5010844;28;20495;-72
2022/10/08 00:11:02;;;;;;;1999.90;999.90;;;9.80;99.90;;;;;;5010531;28;20464;-71
2022/10/08 00:13:39;;;;;;;1999.90;999.90;;;9.90;99.90;;;;;;5037844;22;20502;-73
2022/10/08 00:16:07;;;;;;;1999.90;999.90;;;10.00;99.90;;;;;;5023713;28;20572;-68
2022/10/08 00:18:33;;;;;;;1999.90;999.90;;;10.10;99.90;;;;;;5022352;28;20462;-69
2022/10/08 00:21:05;;;;;;;1999.90;999.90;;;10.20;99.90;;;;;;5030793;28;20466;-69
2022/10/08 00:23:33;;;;;;;1999.90;999.90;;;10.30;99.90;;;;;;5026629;28;20561;-70
2022/10/08 00:26:06;;;;;;;1999.90;999.90;;;10.40;99.90;;;;;;5031116;28;20534;-67
2022/10/08 00:28:33;;;;;;;1999.90;999.90;;;10.40;99.90;;;;;;5030714;28;20848;-69
2022/10/08 00:31:06;;;;;;;1999.90;999.90;;;10.40;99.90;;;;;;5030328;28;20459;-70
2022/10/08 00:33:34;;;;;;;1999.90;999.90;;;11.00;99.90;;;;;;5026863;28;20482;-69
2022/10/08 00:36:02;;;;;;;1999.90;999.90;;;10.70;99.90;;;;;;5029963;28;21170;-69
2022/10/08 00:38:29;;;;;;;1999.90;999.90;;;10.90;99.90;;;;;;5031126;28;22312;-70
2022/10/08 00:40:56;;;;;;;1999.90;999.90;;;11.20;99.90;;;;;;5028950;28;20546;-70
2022/10/08 00:43:42;;;;;;;1999.90;999.90;;;11.40;99.90;;;;;;5027720;28;20483;-70
2022/10/08 00:46:21;;;;;;;1999.90;999.90;;;11.40;99.90;;;;;;5031277;28;20471;-69
2022/10/08 00:48:50;;;;;;;1999.90;999.90;;;11.30;99.90;;;;;;5032459;28;21111;-70
2022/10/08 00:51:17;;;;;;;1999.90;999.90;;;11.40;99.90;;;;;;5030843;28;21178;-69
2022/10/08 00:53:44;;;;;;;1999.90;999.90;;;11.40;99.90;;;;;;5030788;28;20471;-69
2022/10/08 00:56:11;;;;;;;1999.90;999.90;;;11.40;99.90;;;;;;5029391;28;20459;-68
2022/10/08 00:58:41;;;;;;;1999.90;999.90;;;11.30;99.90;;;;;;5029218;28;20455;-70
2022/10/08 01:01:08;;;;;;;1999.90;999.90;;;11.30;99.90;;;;;;5028649;28;20471;-70
2022/10/08 01:03:35;;;;;;;1999.90;999.90;;;11.50;99.90;;;;;;5025269;28;20862;-69
2022/10/08 01:06:10;;;;;;;1999.90;999.90;;;12.00;99.90;;;;;;5029383;28;20459;-72
2022/10/08 01:08:46;;;;;;;1999.90;999.90;;;12.40;99.90;;;;;;5024654;28;20473;-70
2022/10/08 01:11:24;;;;;;;1999.90;999.90;;;12.40;99.90;;;;;;5029947;28;20962;-70
2022/10/08 01:13:59;;;;;;;1999.90;999.90;;;12.40;99.90;;;;;;5028887;28;20489;-69
2022/10/08 01:16:30;;;;;;;1999.90;999.90;;;12.40;99.90;;;;;;5026814;28;20553;-72
2022/10/08 01:19:02;;;;;;;1999.90;999.90;;;12.30;99.90;;;;;;5028762;28;20466;-71
2022/10/08 01:21:40;;;;;;;1999.90;999.90;;;12.20;99.90;;;;;;5028332;28;20467;-70
2022/10/08 01:25:31;;;;;;;1999.90;999.90;;;12.20;99.90;;;;;;5025853;28;20554;-71
2022/10/08 01:27:26;;;;;;;1999.90;999.90;;;12.10;99.90;;;;;;5029606;28;20451;-71
2022/10/08 01:29:54;;;;;;;1999.90;999.90;;;12.10;99.90;;;;;;5027807;28;20467;-71
2022/10/08 01:32:36;;;;;;;1999.90;999.90;;;12.10;99.90;;;;;;5027872;28;20566;-72
2022/10/08 01:35:08;;;;;;;1999.90;999.90;;;12.10;99.90;;;;;;5028120;28;20464;-70
2022/10/08 01:37:38;;;;;;;1999.90;999.90;;;12.10;99.90;;;;;;5028660;28;20505;-69
2022/10/08 01:40:10;;;;;;;1999.90;999.90;;;12.30;99.90;;;;;;5029377;28;20455;-70
2022/10/08 01:42:39;;;;;;;1999.90;999.90;;;12.60;99.90;;;;;;5023762;28;20474;-71
2022/10/08 01:45:11;;;;;;;1999.90;999.90;;;12.60;99.90;;;;;;5026356;28;20542;-70
2022/10/08 01:47:39;;;;;;;1999.90;999.90;;;12.50;99.90;;;;;;5024713;28;20463;-71
2022/10/08 01:50:12;;;;;;;1999.90;999.90;;;12.50;99.90;;;;;;5027371;28;20968;-70
2022/10/08 01:52:44;;;;;;;1999.90;999.90;;;12.40;99.90;;;;;;5024460;28;20487;-72
2022/10/08 01:55:16;;;;;;;1999.90;999.90;;;12.40;99.90;;;;;;5027781;28;20472;-72
2022/10/08 01:57:45;;;;;;;1999.90;999.90;;;12.30;99.90;;;;;;5025840;28;20464;-71
2022/10/08 02:00:14;;;;;;;1999.90;999.90;;;12.40;99.90;;;;;;5029475;28;20474;-71
2022/10/08 02:02:41;;;;;;;1999.90;999.90;;;12.30;99.90;;;;;;5024799;28;20869;-70
2022/10/08 02:05:08;;;;;;;1999.90;999.90;;;12.30;99.90;;;;;;5028168;28;20541;-70
2022/10/08 02:07:37;;;;;;;1999.90;999.90;;;12.20;99.90;;;;;;5029660;28;20502;-70
2022/10/08 02:10:07;;;;;;;1999.90;999.90;;;12.30;99.90;;;;;;5029097;28;20826;-70
2022/10/08 02:12:35;;;;;;;1999.90;999.90;;;12.20;99.90;;;;;;5025637;28;20999;-70
2022/10/08 02:15:05;;;;;;;1999.90;999.90;;;12.30;99.90;;;;;;5027225;28;20463;-71
2022/10/08 02:17:39;;;;;;;1999.90;999.90;;;12.30;99.90;;;;;;5027652;28;20459;-70
2022/10/08 02:20:12;;;;;;;1999.90;999.90;;;12.20;99.90;;;;;;5027057;28;20466;-70
2022/10/08 02:22:43;;;;;;;1999.90;999.90;;;12.10;99.90;;;;;;5022347;28;20479;-71
2022/10/08 02:25:16;;;;;;;1999.90;999.90;;;12.00;99.90;;;;;;5026875;28;20455;-71
2022/10/08 02:27:53;;;;;;;1999.90;999.90;;;11.90;99.90;;;;;;5024888;28;20463;-70
2022/10/08 02:30:22;;;;;;;1999.90;999.90;;;11.80;99.90;;;;;;5027260;28;20493;-72
2022/10/08 02:32:56;;;;;;;1999.90;999.90;;;11.70;99.90;;;;;;5027692;28;20567;-78
2022/10/08 02:35:27;;;;;;;1999.90;999.90;;;11.60;99.90;;;;;;5025938;28;20455;-71
2022/10/08 02:37:58;;;;;;;1999.90;999.90;;;11.50;99.90;;;;;;5023865;28;20463;-71
2022/10/08 02:40:28;;;;;;;1999.90;999.90;;;11.50;99.90;;;;;;5023952;28;20451;-69
2022/10/08 02:42:59;;;;;;;1999.90;999.90;;;11.50;99.90;;;;;;5028475;28;20478;-69
2022/10/08 02:45:30;;;;;;;1999.90;999.90;;;11.50;99.90;;;;;;5027009;28;20455;-71
2022/10/08 02:48:03;;;;;;;1999.90;999.90;;;11.40;99.90;;;;;;5026538;28;20555;-71
2022/10/08 02:50:33;;;;;;;1999.90;999.90;;;11.50;99.90;;;;;;5022347;28;20467;-71
2022/10/08 02:53:01;;;;;;;1999.90;999.90;;;11.20;99.90;;;;;;5027275;28;20486;-69
2022/10/08 02:55:41;;;;;;;1999.90;999.90;;;11.10;99.90;;;;;;5026613;28;20989;-70
2022/10/08 02:58:10;;;;;;;1999.90;999.90;;;11.10;99.90;;;;;;5025489;28;20819;-73
2022/10/08 03:00:43;;;;;;;1999.90;999.90;;;11.00;99.90;;;;;;5028155;28;20467;-70
2022/10/08 03:03:14;;;;;;;1999.90;999.90;;;11.10;99.90;;;;;;5026940;28;20613;-71
2022/10/08 03:05:42;;;;;;;1999.90;999.90;;;11.40;99.90;;;;;;5023916;28;20483;-69
2022/10/08 03:08:13;;;;;;;1999.90;999.90;;;11.60;99.90;;;;;;5027752;28;20467;-70
2022/10/08 03:10:41;;;;;;;1999.90;999.90;;;11.60;99.90;;;;;;5029090;28;20467;-68
2022/10/08 03:13:09;;;;;;;1999.90;999.90;;;11.60;99.90;;;;;;5022353;28;20873;-69
2022/10/08 03:15:37;;;;;;;1999.90;999.90;;;11.60;99.90;;;;;;5026342;28;20467;-70
2022/10/08 03:18:09;;;;;;;1999.90;999.90;;;11.70;99.90;;;;;;5027058;28;20468;-73
2022/10/08 03:20:41;;;;;;;1999.90;999.90;;;11.70;99.90;;;;;;5027138;28;20967;-72
2022/10/08 03:23:08;;;;;;;1999.90;999.90;;;11.80;99.90;;;;;;5027766;28;20482;-74
2022/10/08 03:25:35;;;;;;;1999.90;999.90;;;11.80;99.90;;;;;;5031854;28;20462;-71
2022/10/08 03:28:02;;;;;;;1999.90;999.90;;;11.80;99.90;;;;;;5034513;28;20450;-70
2022/10/08 03:30:28;;;;;;;1999.90;999.90;;;11.90;99.90;;;;;;5032952;28;20489;-69
2022/10/08 03:32:55;;;;;;;1999.90;999.90;;;12.00;99.90;;;;;;5030290;28;21003;-70
2022/10/08 03:35:23;;;;;;;1999.90;999.90;;;11.90;99.90;;;;;;5030883;28;20463;-69
2022/10/08 03:37:53;;;;;;;1999.90;999.90;;;11.90;99.90;;;;;;5031626;28;20459;-69
2022/10/08 03:40:20;;;;;;;1999.90;999.90;;;11.80;99.90;;;;;;5030677;28;20837;-69
2022/10/08 03:42:47;;;;;;;1999.90;999.90;;;11.70;99.90;;;;;;5032047;28;20581;-73
2022/10/08 03:45:14;;;;;;;1999.90;999.90;;;11.80;99.90;;;;;;5030051;28;20871;-70
2022/10/08 03:47:41;;;;;;;1999.90;999.90;;;11.70;99.90;;;;;;5031765;28;20459;-70
2022/10/08 03:50:08;;;;;;;1999.90;999.90;;;11.90;99.90;;;;;;5026702;28;20467;-69
2022/10/08 03:52:37;;;;;;;1999.90;999.90;;;11.90;99.90;;;;;;5021805;28;20483;-69
2022/10/08 03:55:04;;;;;;;1999.90;999.90;;;11.90;99.90;;;;;;5032521;28;20540;-68
2022/10/08 03:57:31;;;;;;;1999.90;999.90;;;12.00;99.90;;;;;;5031670;28;20502;-68
2022/10/08 03:59:58;;;;;;;1999.90;999.90;;;12.00;99.90;;;;;;5029798;28;20869;-70
2022/10/08 04:02:25;;;;;;;1999.90;999.90;;;12.00;99.90;;;;;;5028670;28;20486;-69
2022/10/08 04:04:52;;;;;;;1999.90;999.90;;;12.00;99.90;;;;;;5032097;28;20479;-69
2022/10/08 04:07:19;;;;;;;1999.90;999.90;;;11.90;99.90;;;;;;5026108;28;21676;-68
2022/10/08 04:09:47;;;;;;;1999.90;999.90;;;12.00;99.90;;;;;;5024956;28;20477;-70
2022/10/08 04:12:14;;;;;;;1999.90;999.90;;;12.00;99.90;;;;;;5031246;28;20496;-68
2022/10/08 04:14:41;;;;;;;1999.90;999.90;;;11.90;99.90;;;;;;5031457;28;20548;-68
2022/10/08 04:17:08;;;;;;;1999.90;999.90;;;11.90;99.90;;;;;;5033664;28;20835;-66
2022/10/08 04:19:35;;;;;;;1999.90;999.90;;;11.90;99.90;;;;;;5032942;28;20538;-69
2022/10/08 04:22:01;;;;;;;1999.90;999.90;;;11.90;99.90;;;;;;5032199;28;20486;-68
2022/10/08 04:24:28;;;;;;;1999.90;999.90;;;12.00;99.90;;;;;;5032010;28;20483;-68
2022/10/08 04:26:56;;;;;;;1999.90;999.90;;;12.00;99.90;;;;;;5032894;28;20471;-67
2022/10/08 04:29:23;;;;;;;1999.90;999.90;;;12.00;99.90;;;;;;5032933;28;20475;-66
2022/10/08 04:31:50;;;;;;;1999.90;999.90;;;12.00;99.90;;;;;;5028375;28;20570;-67
2022/10/08 04:34:17;;;;;;;1999.90;999.90;;;12.00;99.90;;;;;;5032802;28;20471;-69
2022/10/08 04:36:44;;;;;;;1999.90;999.90;;;12.00;99.90;;;;;;5032736;28;20467;-69
2022/10/08 04:39:11;;;;;;;1999.90;999.90;;;12.10;99.90;;;;;;5032971;28;20466;-69
2022/10/08 04:41:37;;;;;;;1999.90;999.90;;;12.10;99.90;;;;;;5028072;28;20463;-68
2022/10/08 04:44:05;;;;;;;1999.90;999.90;;;12.10;99.90;;;;;;5028209;28;20483;-67
2022/10/08 04:46:32;;;;;;;1999.90;999.90;;;12.10;99.90;;;;;;5033082;28;20459;-68
2022/10/08 04:48:59;;;;;;;1999.90;999.90;;;12.10;99.90;;;;;;5029215;28;20908;-69
2022/10/08 04:51:27;;;;;;;1999.90;999.90;;;12.10;99.90;;;;;;5031968;28;21194;-69
2022/10/08 04:53:55;;;;;;;1999.90;999.90;;;12.00;99.90;;;;;;5033187;28;20566;-69
2022/10/08 04:56:24;;;;;;;1999.90;999.90;;;12.10;99.90;;;;;;5022419;28;20469;-70
2022/10/08 04:58:51;;;;;;;1999.90;999.90;;;12.10;99.90;;;;;;5028007;28;20455;-68
2022/10/08 05:01:20;;;;;;;1999.90;999.90;;;12.20;99.90;;;;;;5032319;28;20463;-68
2022/10/08 05:03:50;;;;;;;1999.90;999.90;;;12.20;99.90;;;;;;5032045;28;20557;-68
2022/10/08 05:06:18;;;;;;;1999.90;999.90;;;12.20;99.90;;;;;;5030646;28;20463;-68
2022/10/08 05:08:45;;;;;;;1999.90;999.90;;;12.20;99.90;;;;;;5031668;28;20458;-70
2022/10/08 05:11:13;;;;;;;1999.90;999.90;;;12.10;99.90;;;;;;5031016;28;20464;-68
2022/10/08 05:13:40;;;;;;;1999.90;999.90;;;12.10;99.90;;;;;;5028833;28;20495;-69
2022/10/08 05:16:10;;;;;;;1999.90;999.90;;;12.00;99.90;;;;;;5027723;28;20494;-70
2022/10/08 05:18:39;;;;;;;1999.90;999.90;;;12.00;99.90;;;;;;5031484;28;20463;-69
2022/10/08 05:21:07;;;;;;;1999.90;999.90;;;12.10;99.90;;;;;;5030477;28;20530;-68
2022/10/08 05:23:34;;;;;;;1999.90;999.90;;;12.10;99.90;;;;;;5027159;28;20514;-67
2022/10/08 05:26:02;;;;;;;1999.90;999.90;;;12.10;99.90;;;;;;5032236;28;20483;-71
2022/10/08 05:28:30;;;;;;;1999.90;999.90;;;12.10;99.90;;;;;;5030112;28;20459;-70
2022/10/08 05:31:00;;;;;;;1999.90;999.90;;;12.20;99.90;;;;;;5032215;28;20467;-70
2022/10/08 05:33:27;;;;;;;1999.90;999.90;;;12.20;99.90;;;;;;5029746;28;20490;-67
2022/10/08 05:35:55;;;;;;;1999.90;999.90;;;12.30;99.90;;;;;;5026766;28;20456;-67
2022/10/08 05:38:22;;;;;;;1999.90;999.90;;;12.30;99.90;;;;;;5030548;28;20467;-69
2022/10/08 05:40:49;;;;;;;1999.90;999.90;;;12.40;99.90;;;;;;5030760;28;20459;-70
2022/10/08 05:43:16;;;;;;;1999.90;999.90;;;12.40;99.90;;;;;;5030221;28;20487;-70
2022/10/08 05:45:49;;;;;;;1999.90;999.90;;;12.40;99.90;;;;;;5026402;28;20482;-70
2022/10/08 05:48:16;;;;;;;1999.90;999.90;;;12.40;99.90;;;;;;5029699;28;20524;-71
2022/10/08 05:50:43;;;;;;;1999.90;999.90;;;12.30;99.90;;;;;;5032582;28;20447;-70
2022/10/08 05:53:11;;;;;;;1999.90;999.90;;;12.40;99.90;;;;;;5033434;28;20486;-71
2022/10/08 05:55:38;;;;;;;1999.90;999.90;;;12.40;99.90;;;;;;5032711;28;20447;-70
2022/10/08 05:58:05;;;;;;;1999.90;999.90;;;12.30;99.90;;;;;;5033062;28;20453;-70
2022/10/08 06:00:31;;;;;;;1999.90;999.90;;;12.40;99.90;;;;;;5033154;28;20455;-70
2022/10/08 06:02:58;;;;;;;1999.90;999.90;;;12.50;99.90;;;;;;5032447;28;20478;-68
2022/10/08 06:05:25;;;;;;;1999.90;999.90;;;12.50;99.90;;;;;;5032590;28;20475;-69
2022/10/08 06:07:56;;;;;;;1999.90;999.90;;;12.50;99.90;;;;;;5031291;28;20443;-69
2022/10/08 06:10:24;;;;;;;1999.90;999.90;;;12.50;99.90;;;;;;5029312;28;20793;-68
2022/10/08 06:12:51;;;;;;;1999.90;999.90;;;12.50;99.90;;;;;;5029153;28;20544;-69
2022/10/08 06:15:18;;;;;;;1999.90;999.90;;;12.60;99.90;;;;;;5031031;28;20631;-71
2022/10/08 06:17:44;;;;;;;1999.90;999.90;;;12.60;99.90;;;;;;5030968;28;20467;-71
2022/10/08 06:20:11;;;;;;;1999.90;999.90;;;12.80;99.90;;;;;;5025528;28;20471;-68
2022/10/08 06:22:38;;;;;;;1999.90;999.90;;;12.90;99.90;;;;;;5028308;28;20486;-70
2022/10/08 06:25:05;;;;;;;1999.90;999.90;;;13.00;99.90;;;;;;5029242;28;20502;-71
2022/10/08 06:27:34;;;;;;;1999.90;999.90;;;13.30;99.90;;;;;;5028103;28;20490;-69
2022/10/08 06:30:00;;;;;;;1999.90;999.90;;;13.40;99.90;;;;;;5025608;28;20475;-70
2022/10/08 06:32:27;;;;;;;1999.90;999.90;;;13.50;99.90;;;;;;5027068;28;20483;-72
2022/10/08 06:34:54;;;;;;;1999.90;999.90;;;13.60;99.90;;;;;;5026310;28;20460;-69
2022/10/08 06:37:21;;;;;;;1999.90;999.90;;;13.80;99.90;;;;;;5029458;28;20943;-70
2022/10/08 06:39:48;;;;;;;1999.90;999.90;;;14.00;99.90;;;;;;5025926;28;20847;-70
2022/10/08 06:42:14;;;;;;;1999.90;999.90;;;14.30;99.90;;;;;;5027585;28;20850;-69
2022/10/08 06:44:43;;;;;;;1999.90;999.90;;;14.30;99.90;;;;;;5021774;28;20479;-69
2022/10/08 06:47:09;;;;;;;1999.90;999.90;;;14.40;99.90;;;;;;5028105;28;20470;-70
2022/10/08 06:49:36;;;;;;;1999.90;999.90;;;14.40;99.90;;;;;;5026445;28;20470;-69
2022/10/08 06:52:03;;;;;;;1999.90;999.90;;;14.30;99.90;;;;;;5026896;28;20495;-70
2022/10/08 06:54:29;;;;;;;1999.90;999.90;;;14.30;99.90;;;;;;5023205;28;20482;-70
2022/10/08 06:56:56;;;;;;;1999.90;999.90;;;14.30;99.90;;;;;;5030607;28;20435;-71
2022/10/08 06:59:23;;;;;;;1999.90;999.90;;;14.30;99.90;;;;;;5034369;28;20469;-73
2022/10/08 07:01:51;;;;;;;1999.90;999.90;;;14.30;99.90;;;;;;5035863;28;20981;-69
2022/10/08 07:04:18;;;;;;;1999.90;999.90;;;14.40;99.90;;;;;;5034338;28;20842;-67
2022/10/08 07:06:44;;;;;;;1999.90;999.90;;;14.60;99.90;;;;;;5035027;28;20435;-69
2022/10/08 07:09:12;;;;;;;1999.90;999.90;;;14.70;99.90;;;;;;5035975;28;20443;-68
2022/10/08 07:11:39;;;;;;;1999.90;999.90;;;14.70;99.90;;;;;;5035681;28;20500;-69
2022/10/08 07:14:06;;;;;;;1999.90;999.90;;;14.80;99.90;;;;;;5035945;28;20445;-68
2022/10/08 07:16:32;;;;;;;1999.90;999.90;;;14.70;99.90;;;;;;5035273;28;20439;-70
2022/10/08 07:19:00;;;;;;;1999.90;999.90;;;14.80;99.90;;;;;;5033954;28;20463;-70
2022/10/08 07:21:28;;;;;;;1999.90;999.90;;;14.70;99.90;;;;;;5031232;28;20459;-70
2022/10/08 07:23:56;;;;;;;1999.90;999.90;;;14.70;99.90;;;;;;5033030;28;20478;-68
2022/10/08 07:26:25;;;;;;;1999.90;999.90;;;14.70;99.90;;;;;;5033906;28;20475;-68
2022/10/08 07:28:54;;;;;;;1999.90;999.90;;;14.80;99.90;;;;;;5035426;28;20435;-73
2022/10/08 07:31:23;;;;;;;1999.90;999.90;;;15.00;99.90;;;;;;5029512;28;20467;-68
2022/10/08 07:33:50;;;;;;;1999.90;999.90;;;15.00;99.90;;;;;;5028445;28;20533;-70
2022/10/08 07:36:20;;;;;;;1999.90;999.90;;;15.00;99.90;;;;;;5030656;28;20813;-68
2022/10/08 07:38:47;;;;;;;1999.90;999.90;;;15.20;99.90;;;;;;5025201;28;20463;-69
2022/10/08 07:41:14;;;;;;;1999.90;999.90;;;15.30;99.90;;;;;;5030705;28;20462;-70
2022/10/08 07:43:42;;;;;;;1999.90;999.90;;;15.40;99.90;;;;;;5032061;28;20483;-71
2022/10/08 07:46:09;;;;;;;1999.90;999.90;;;15.30;99.90;;;;;;5031401;28;20491;-71
2022/10/08 07:48:36;;;;;;;1999.90;999.90;;;15.20;99.90;;;;;;5030567;28;20459;-69
2022/10/08 07:51:08;;;;;;;1999.90;999.90;;;15.00;99.90;;;;;;5034669;28;20872;-70
2022/10/08 07:53:36;;;;;;;1999.90;999.90;;;14.70;99.90;;;;;;5034345;28;20470;-69
2022/10/08 07:56:03;;;;;;;1999.90;999.90;;;14.60;99.90;;;;;;5026594;28;20478;-70
2022/10/08 07:58:31;;;;;;;1999.90;999.90;;;14.40;99.90;;;;;;5031329;28;20462;-71
2022/10/08 08:00:57;;;;;;;1999.90;999.90;;;14.50;99.90;;;;;;5034602;28;20968;-73
2022/10/08 08:03:24;;;;;;;1999.90;999.90;;;14.20;99.90;;;;;;5030806;28;20475;-71
2022/10/08 08:05:52;;;;;;;1999.90;999.90;;;14.20;99.90;;;;;;5028461;28;20479;-68
2022/10/08 08:08:22;;;;;;;1999.90;999.90;;;14.10;99.90;;;;;;5029610;28;20474;-69
2022/10/08 08:10:55;;;;;;;1999.90;999.90;;;14.10;99.90;;;;;;5022965;28;20473;-69
2022/10/08 08:13:22;;;;;;;1999.90;999.90;;;14.10;99.90;;;;;;5027126;28;21035;-69
2022/10/08 08:15:56;;;;;;;1999.90;999.90;;;14.00;99.90;;;;;;5026600;28;20462;-69
2022/10/08 08:18:23;;;;;;;1999.90;999.90;;;13.90;99.90;;;;;;5029552;28;20462;-70
2022/10/08 08:20:49;;;;;;;1999.90;999.90;;;13.90;99.90;;;;;;5028940;28;20493;-71
2022/10/08 08:23:16;;;;;;;1999.90;999.90;;;13.70;99.90;;;;;;5031490;28;20513;-71
2022/10/08 08:25:43;;;;;;;1999.90;999.90;;;13.60;99.90;;;;;;5030901;28;20529;-70
2022/10/08 08:28:11;;;;;;;1999.90;999.90;;;13.60;99.90;;;;;;5024871;28;20458;-71
2022/10/08 08:30:38;;;;;;;1999.90;999.90;;;13.60;99.90;;;;;;5030364;28;20471;-70
2022/10/08 08:33:05;;;;;;;1999.90;999.90;;;13.60;99.90;;;;;;5027750;28;20479;-71
2022/10/08 08:35:32;;;;;;;1999.90;999.90;;;13.60;99.90;;;;;;5030488;28;20460;-70
2022/10/08 08:37:58;;;;;;;1999.90;999.90;;;13.80;99.90;;;;;;5030415;28;20461;-71
2022/10/08 08:40:27;;;;;;;1999.90;999.90;;;13.40;99.90;;;;;;5019909;28;20471;-70
2022/10/08 08:42:56;;;;;;;1999.90;999.90;;;13.40;99.90;;;;;;5030006;28;20507;-70
2022/10/08 08:45:27;;;;;;;1999.90;999.90;;;13.60;99.90;;;;;;5027073;28;20483;-71
2022/10/08 08:48:01;;;;;;;1999.90;999.90;;;13.50;99.90;;;;;;5029470;28;20456;-70
2022/10/08 08:50:32;;;;;;;1999.90;999.90;;;13.50;99.90;;;;;;5028202;28;20466;-70
2022/10/08 08:52:59;;;;;;;1999.90;999.90;;;13.60;99.90;;;;;;5028267;28;20483;-69
2022/10/08 08:55:34;;;;;;;1999.90;999.90;;;13.60;99.90;;;;;;5026279;28;20459;-69
2022/10/08 08:58:12;;;;;;;1999.90;999.90;;;13.60;99.90;;;;;;5029615;28;20469;-69
2022/10/08 09:00:44;;;;;;;1999.90;999.90;;;13.70;99.90;;;;;;5031366;28;20465;-69
2022/10/08 09:03:19;;;;;;;1999.90;999.90;;;13.90;99.90;;;;;;5029232;28;20483;-70
2022/10/08 09:05:50;;;;;;;1999.90;999.90;;;14.00;99.90;;;;;;5027660;28;20987;-70
2022/10/08 09:08:20;;;;;;;1999.90;999.90;;;14.10;99.90;;;;;;5031230;28;20462;-71
2022/10/08 09:10:53;;;;;;;1999.90;999.90;;;14.20;99.90;;;;;;5024686;28;20485;-72
2022/10/08 09:13:24;;;;;;;1999.90;999.90;;;14.30;99.90;;;;;;5026232;28;20500;-70
2022/10/08 09:15:54;;;;;;;1999.90;999.90;;;14.20;99.90;;;;;;5029462;28;20462;-70
2022/10/08 09:18:21;;;;;;;1999.90;999.90;;;14.10;99.90;;;;;;5030954;28;20459;-71
2022/10/08 09:20:48;;;;;;;1999.90;999.90;;;14.20;99.90;;;;;;5030055;28;20462;-70
2022/10/08 09:23:17;;;;;;;1999.90;999.90;;;14.10;99.90;;;;;;5026305;28;20488;-70
2022/10/08 09:25:49;;;;;;;1999.90;999.90;;;14.10;99.90;;;;;;5032459;28;21028;-70
2022/10/08 09:28:39;;;;;;;1999.90;999.90;;;14.10;99.90;;;;;;5033123;28;20828;-71
2022/10/08 09:31:24;;;;;;;1999.90;999.90;;;14.20;99.90;;;;;;5031804;28;21018;-70
2022/10/08 09:34:00;;;;;;;1999.90;999.90;;;14.30;99.90;;;;;;5032395;28;20570;-69
2022/10/08 09:36:34;;;;;;;1999.90;999.90;;;14.70;99.90;;;;;;5012993;28;20432;-71
2022/10/08 09:39:03;;;;;;;1999.90;999.90;;;14.40;99.90;;;;;;5014451;28;20462;-71
2022/10/08 09:41:30;;;;;;;1999.90;999.90;;;14.50;99.90;;;;;;5029242;28;20494;-69
2022/10/08 09:44:15;;;;;;;1999.90;999.90;;;14.50;99.90;;;;;;5029394;28;20486;-70
2022/10/08 09:46:44;;;;;;;1999.90;999.90;;;14.50;99.90;;;;;;5032086;28;20475;-71
2022/10/08 09:49:29;;;;;;;1999.90;999.90;;;14.70;99.90;;;;;;5032199;28;20802;-70
2022/10/08 09:52:00;;;;;;;1999.90;999.90;;;14.70;99.90;;;;;;5030923;28;20509;-70
2022/10/08 09:54:29;;;;;;;1999.90;999.90;;;14.80;99.90;;;;;;5031638;28;20825;-70
2022/10/08 09:56:58;;;;;;;1999.90;999.90;;;14.90;99.90;;;;;;5032369;28;20439;-70
2022/10/08 09:59:28;;;;;;;1999.90;999.90;;;15.10;99.90;;;;;;5031812;28;20463;-70
2022/10/08 10:01:57;;;;;;;1999.90;999.90;;;15.20;99.90;;;;;;5032182;28;20459;-70
2022/10/08 10:04:33;;;;;;;1999.90;999.90;;;15.10;99.90;;;;;;5028647;28;20467;-70
2022/10/08 10:07:00;;;;;;;1999.90;999.90;;;15.20;99.90;;;;;;5028301;28;20474;-72
2022/10/08 10:09:37;;;;;;;1999.90;999.90;;;15.40;99.90;;;;;;5029071;28;20852;-72
2022/10/08 10:12:11;;;;;;;1999.90;999.90;;;15.50;99.90;;;;;;5027151;28;20494;-69
2022/10/08 10:14:44;;;;;;;1999.90;999.90;;;15.60;99.90;;;;;;5025882;28;20458;-71
2022/10/08 10:17:18;;;;;;;1999.90;999.90;;;15.60;99.90;;;;;;5028860;28;20470;-69
2022/10/08 10:19:51;;;;;;;1999.90;999.90;;;15.60;99.90;;;;;;5027827;28;20462;-70
2022/10/08 10:22:21;;;;;;;1999.90;999.90;;;15.40;99.90;;;;;;5028306;28;20483;-71
2022/10/08 10:24:55;;;;;;;1999.90;999.90;;;15.40;99.90;;;;;;5030741;28;20451;-70
2022/10/08 10:27:27;;;;;;;1999.90;999.90;;;15.30;99.90;;;;;;5021063;28;21026;-70
2022/10/08 10:30:13;;;;;;;1999.90;999.90;;;15.50;99.90;;;;;;5030476;28;20462;-70
2022/10/08 10:32:47;;;;;;;1999.90;999.90;;;15.60;99.90;;;;;;5031723;28;20470;-71
2022/10/08 10:35:17;;;;;;;1999.90;999.90;;;15.80;99.90;;;;;;5031881;28;20435;-71
2022/10/08 10:37:51;;;;;;;1999.90;999.90;;;16.00;99.90;;;;;;5032287;28;20435;-70
2022/10/08 10:40:35;;;;;;;1999.90;999.90;;;15.90;99.90;;;;;;5031972;28;20459;-70
2022/10/08 10:43:16;;;;;;;1999.90;999.90;;;16.00;99.90;;;;;;5028875;28;20529;-70
2022/10/08 10:45:47;;;;;;;1999.90;999.90;;;16.20;99.90;;;;;;5031435;28;20482;-70
2022/10/08 10:48:15;;;;;;;1999.90;999.90;;;16.30;99.90;;;;;;5032089;28;20447;-69
2022/10/08 10:50:57;;;;;;;1999.90;999.90;;;16.30;99.90;;;;;;5031978;28;20443;-70
2022/10/08 10:53:30;;;;;;;1999.90;999.90;;;16.50;99.90;;;;;;5031900;28;20462;-71
2022/10/08 10:56:05;;;;;;;1999.90;999.90;;;16.10;99.90;;;;;;5031216;28;20428;-68
2022/10/08 10:58:40;;;;;;;1999.90;999.90;;;16.00;99.90;;;;;;5031118;28;20462;-69
2022/10/08 11:01:20;;;;;;;1999.90;999.90;;;16.30;99.90;;;;;;5031880;28;20450;-70
2022/10/08 11:03:58;;;;;;;1999.90;999.90;;;16.80;99.90;;;;;;5031920;28;20466;-68
2022/10/08 11:06:48;;;;;;;1999.90;999.90;;;16.90;99.90;;;;;;5031192;28;20505;-71
2022/10/08 11:09:22;;;;;;;1999.90;999.90;;;16.90;99.90;;;;;;5031697;28;20427;-70
2022/10/08 11:11:52;;;;;;;1999.90;999.90;;;17.00;99.90;;;;;;5030670;28;20443;-70
2022/10/08 11:14:35;;;;;;;1999.90;999.90;;;16.80;99.90;;;;;;5030764;28;20445;-70
2022/10/08 11:17:08;;;;;;;1999.90;999.90;;;16.90;99.90;;;;;;5031379;28;20447;-70
2022/10/08 11:19:47;;;;;;;1999.90;999.90;;;16.80;99.90;;;;;;5031533;28;20447;-70
2022/10/08 11:22:22;;;;;;;1999.90;999.90;;;16.80;99.90;;;;;;5030117;28;20493;-70
2022/10/08 11:24:58;;;;;;;1999.90;999.90;;;16.70;99.90;;;;;;5027971;28;20485;-70
2022/10/08 11:27:36;;;;;;;1999.90;999.90;;;16.70;99.90;;;;;;5027413;28;20490;-70
2022/10/08 11:30:10;;;;;;;1999.90;999.90;;;16.80;99.90;;;;;;5030828;28;21074;-73
2022/10/08 11:32:38;;;;;;;1999.90;999.90;;;16.80;99.90;;;;;;5024418;28;20577;-70
2022/10/08 11:35:21;;;;;;;1999.90;999.90;;;16.80;99.90;;;;;;5030631;28;20453;-71
2022/10/08 11:37:55;;;;;;;1999.90;999.90;;;16.60;99.90;;;;;;5030097;28;20438;-70
2022/10/08 11:40:30;;;;;;;1999.90;999.90;;;16.50;99.90;;;;;;5027999;28;20485;-70
2022/10/08 11:43:04;;;;;;;1999.90;999.90;;;16.30;99.90;;;;;;5027347;28;20564;-70
2022/10/08 11:45:34;;;;;;;1999.90;999.90;;;16.50;99.90;;;;;;5031948;28;20458;-69
2022/10/08 11:48:01;;;;;;;1999.90;999.90;;;16.50;99.90;;;;;;5031490;28;20479;-70
2022/10/08 11:50:32;;;;;;;1999.90;999.90;;;16.60;99.90;;;;;;5031464;28;20470;-69
2022/10/08 11:53:13;;;;;;;1999.90;999.90;;;16.80;99.90;;;;;;5033495;28;20486;-70
2022/10/08 11:55:49;;;;;;;1999.90;999.90;;;16.50;99.90;;;;;;5024038;28;20447;-70
2022/10/08 11:58:23;;;;;;;1999.90;999.90;;;16.60;99.90;;;;;;5034809;28;20442;-71
2022/10/08 12:00:53;;;;;;;1999.90;999.90;;;16.90;99.90;;;;;;5034339;28;20928;-70
2022/10/08 12:03:26;;;;;;;1999.90;999.90;;;17.30;99.90;;;;;;5033637;28;20467;-70
2022/10/08 12:05:57;;;;;;;1999.90;999.90;;;17.40;99.90;;;;;;5030588;28;20470;-71
2022/10/08 12:08:54;;;;;;;1999.90;999.90;;;17.90;99.90;;;;;;5032016;28;20459;-70
2022/10/08 12:11:52;;;;;;;1999.90;999.90;;;17.60;99.90;;;;;;5032197;28;20454;-70
2022/10/08 12:14:43;;;;;;;1999.90;999.90;;;17.80;99.90;;;;;;5023223;28;20947;-69